createdAt,value
2022-07-26T00:01:18.623Z,10.30
2022-07-26T00:03:45.435Z,12.03
2022-07-26T00:06:12.176Z,13.77
2022-07-26T00:08:38.813Z,11.10
2022-07-26T00:11:07.058Z,12.27
2022-07-26T00:13:34.925Z,13.17
2022-07-26T00:16:02.548Z,11.07
2022-07-26T00:18:29.250Z,10.27
2022-07-26T00:20:56.154Z,10.47
2022-07-26T00:23:22.923Z,11.13
2022-07-26T00:25:49.879Z,11.80
2022-07-26T00:28:16.683Z,11.27
2022-07-26T00:30:43.314Z,11.03
2022-07-26T00:33:10.022Z,9.90
2022-07-26T00:35:36.760Z,11.67
2022-07-26T00:38:03.390Z,9.57
2022-07-26T00:40:30.566Z,10.67
2022-07-26T00:42:57.229Z,10.97
2022-07-26T00:45:23.852Z,10.90
2022-07-26T00:47:50.788Z,11.10
2022-07-26T00:50:19.416Z,9.53
2022-07-26T00:52:48.495Z,9.30
2022-07-26T00:55:16.407Z,9.20
2022-07-26T00:57:44.219Z,12.03
2022-07-26T01:00:19.890Z,9.50
2022-07-26T01:02:46.899Z,8.03
2022-07-26T01:05:14.043Z,8.13
2022-07-26T01:07:41.299Z,8.83
2022-07-26T01:10:12.558Z,8.13
2022-07-26T01:12:43.654Z,10.50
2022-07-26T01:15:12.457Z,8.07
2022-07-26T01:17:39.630Z,11.60
2022-07-26T01:20:08.896Z,9.13
2022-07-26T01:22:35.592Z,9.13
2022-07-26T01:25:02.263Z,10.37
2022-07-26T01:27:33.675Z,12.53
2022-07-26T01:30:00.908Z,10.87
2022-07-26T01:32:27.556Z,10.63
2022-07-26T01:34:54.427Z,11.97
2022-07-26T01:37:21.107Z,9.03
2022-07-26T01:39:47.731Z,12.70
2022-07-26T01:42:14.402Z,8.53
2022-07-26T01:44:41.017Z,11.60
2022-07-26T01:47:08.105Z,11.10
2022-07-26T01:49:34.824Z,11.77
2022-07-26T01:52:01.516Z,12.67
2022-07-26T01:54:28.190Z,10.70
2022-07-26T01:56:54.860Z,10.03
2022-07-26T01:59:21.576Z,10.43
2022-07-26T02:01:48.309Z,10.60
2022-07-26T02:04:33.634Z,13.63
2022-07-26T02:07:00.292Z,10.00
2022-07-26T02:09:27.910Z,8.93
2022-07-26T02:11:58.699Z,10.17
2022-07-26T02:14:28.061Z,9.20
2022-07-26T02:16:59.980Z,11.43
2022-07-26T02:19:31.263Z,9.30
2022-07-26T02:21:58.312Z,12.70
2022-07-26T02:24:28.726Z,10.43
2022-07-26T02:26:56.741Z,11.90
2022-07-26T02:29:23.731Z,11.90
2022-07-26T02:31:50.659Z,12.23
2022-07-26T02:34:18.227Z,11.10
2022-07-26T02:36:44.989Z,11.83
2022-07-26T02:39:12.338Z,8.93
2022-07-26T02:41:39.199Z,10.23
2022-07-26T02:44:07.095Z,11.27
2022-07-26T02:46:34.003Z,9.13
2022-07-26T02:49:00.933Z,12.23
2022-07-26T02:51:27.695Z,11.07
2022-07-26T02:53:54.436Z,11.30
2022-07-26T02:56:21.705Z,11.20
2022-07-26T02:58:48.356Z,10.90
2022-07-26T03:01:15.243Z,11.60
2022-07-26T03:03:43.147Z,10.67
2022-07-26T03:06:13.184Z,9.20
2022-07-26T03:08:39.872Z,13.43
2022-07-26T03:11:11.694Z,13.47
2022-07-26T03:13:38.800Z,12.13
2022-07-26T03:16:05.883Z,12.43
2022-07-26T03:18:32.565Z,12.57
2022-07-26T03:20:59.272Z,13.97
2022-07-26T03:23:25.956Z,12.17
2022-07-26T03:25:53.060Z,12.00
2022-07-26T03:28:19.945Z,14.33
2022-07-26T03:30:46.884Z,13.67
2022-07-26T03:33:13.520Z,12.53
2022-07-26T03:35:40.158Z,16.60
2022-07-26T03:38:07.038Z,15.70
2022-07-26T03:40:33.660Z,11.13
2022-07-26T03:43:00.298Z,12.60
2022-07-26T03:45:26.928Z,14.23
2022-07-26T03:47:54.189Z,15.23
2022-07-26T03:50:20.811Z,11.80
2022-07-26T03:52:47.451Z,12.40
2022-07-26T03:55:33.203Z,11.47
2022-07-26T03:57:59.847Z,19.57
2022-07-26T04:00:27.001Z,12.40
2022-07-26T04:02:53.701Z,13.20
2022-07-26T04:05:23.359Z,14.13
2022-07-26T04:07:52.985Z,14.63
2022-07-26T04:10:22.441Z,16.33
2022-07-26T04:12:50.520Z,10.10
2022-07-26T04:15:19.160Z,11.83
2022-07-26T04:17:48.435Z,11.07
2022-07-26T04:20:16.097Z,12.97
2022-07-26T04:22:42.796Z,12.43
2022-07-26T04:25:11.045Z,14.43
2022-07-26T04:27:38.495Z,13.93
2022-07-26T04:30:08.555Z,11.00
2022-07-26T04:32:39.221Z,9.53
2022-07-26T04:35:06.503Z,11.27
2022-07-26T04:37:39.760Z,10.93
2022-07-26T04:40:07.512Z,8.97
2022-07-26T04:42:34.125Z,9.50
2022-07-26T04:45:04.493Z,10.63
2022-07-26T04:47:34.643Z,13.07
2022-07-26T04:50:02.165Z,12.63
2022-07-26T04:52:28.991Z,10.57
2022-07-26T04:54:55.584Z,10.83
2022-07-26T04:57:22.214Z,8.43
2022-07-26T05:00:03.352Z,13.87
2022-07-26T05:02:35.786Z,10.73
2022-07-26T05:05:02.645Z,14.83
2022-07-26T05:07:39.984Z,10.37
2022-07-26T05:10:07.280Z,7.67
2022-07-26T05:12:33.931Z,10.70
2022-07-26T05:15:00.525Z,12.20
2022-07-26T05:17:31.567Z,9.60
2022-07-26T05:20:03.497Z,10.33
2022-07-26T05:22:30.364Z,10.43
2022-07-26T05:24:56.945Z,9.70
2022-07-26T05:27:23.604Z,10.03
2022-07-26T05:29:50.188Z,10.57
2022-07-26T05:32:16.906Z,9.90
2022-07-26T05:34:43.574Z,11.57
2022-07-26T05:37:10.278Z,9.10
2022-07-26T05:39:37.524Z,11.07
2022-07-26T05:42:04.248Z,8.97
2022-07-26T05:44:30.930Z,10.10
2022-07-26T05:46:57.622Z,8.83
2022-07-26T05:49:26.103Z,7.33
2022-07-26T05:51:55.877Z,8.60
2022-07-26T05:54:24.803Z,7.37
2022-07-26T05:56:51.408Z,8.77
2022-07-26T05:59:18.158Z,5.53
2022-07-26T06:01:44.845Z,5.07
2022-07-26T06:04:12.137Z,6.33
2022-07-26T06:06:39.500Z,5.23
2022-07-26T06:09:06.092Z,4.53
2022-07-26T06:11:32.708Z,5.67
2022-07-26T06:13:59.312Z,5.13
2022-07-26T06:16:25.971Z,4.07
2022-07-26T06:18:52.565Z,3.47
2022-07-26T06:21:19.147Z,4.47
2022-07-26T06:23:45.751Z,3.97
2022-07-26T06:26:12.756Z,3.87
2022-07-26T06:28:39.952Z,3.67
2022-07-26T06:31:07.050Z,4.63
2022-07-26T06:33:33.670Z,4.07
2022-07-26T06:36:00.747Z,3.50
2022-07-26T06:38:27.754Z,5.10
2022-07-26T06:40:54.738Z,4.67
2022-07-26T06:43:21.658Z,3.93
2022-07-26T06:45:49.486Z,4.33
2022-07-26T06:48:16.332Z,7.63
2022-07-26T06:50:43.557Z,4.27
2022-07-26T06:53:10.190Z,4.30
2022-07-26T06:55:36.797Z,4.20
2022-07-26T06:58:03.543Z,4.63
2022-07-26T07:00:30.754Z,3.47
2022-07-26T07:02:57.423Z,4.03
2022-07-26T07:05:24.142Z,4.43
2022-07-26T07:07:50.825Z,4.80
2022-07-26T07:10:19.835Z,3.07
2022-07-26T07:12:50.433Z,3.23
2022-07-26T07:15:17.083Z,3.27
2022-07-26T07:17:44.073Z,3.43
2022-07-26T07:20:11.378Z,5.43
2022-07-26T07:22:37.979Z,5.07
2022-07-26T07:25:06.104Z,4.43
2022-07-26T07:27:33.364Z,5.50
2022-07-26T07:30:00.125Z,5.13
2022-07-26T07:32:26.815Z,4.33
2022-07-26T07:34:55.241Z,3.73
2022-07-26T07:37:22.020Z,4.37
2022-07-26T07:39:50.288Z,6.97
2022-07-26T07:42:19.021Z,4.27
2022-07-26T07:44:45.742Z,5.97
2022-07-26T07:47:12.569Z,4.00
2022-07-26T07:49:39.228Z,4.90
2022-07-26T07:52:06.614Z,6.73
2022-07-26T07:54:33.267Z,3.70
2022-07-26T07:56:59.867Z,5.80
2022-07-26T07:59:27.380Z,4.97
2022-07-26T08:01:55.627Z,4.97
2022-07-26T08:04:22.322Z,5.83
2022-07-26T08:06:51.356Z,3.70
2022-07-26T08:09:19.154Z,4.20
2022-07-26T08:11:46.231Z,5.07
2022-07-26T08:14:18.101Z,6.53
2022-07-26T08:16:44.890Z,5.10
2022-07-26T08:19:12.105Z,4.53
2022-07-26T08:21:39.138Z,4.23
2022-07-26T08:24:06.727Z,4.70
2022-07-26T08:26:33.387Z,6.07
2022-07-26T08:29:00.609Z,6.30
2022-07-26T08:31:30.810Z,3.80
2022-07-26T08:33:57.725Z,3.97
2022-07-26T08:36:26.188Z,4.77
2022-07-26T08:38:57.696Z,4.53
2022-07-26T08:41:24.336Z,4.97
2022-07-26T08:43:51.879Z,5.20
2022-07-26T08:46:24.895Z,4.63
2022-07-26T08:48:52.549Z,5.83
2022-07-26T08:51:21.571Z,5.03
2022-07-26T08:53:48.835Z,5.60
2022-07-26T08:56:15.537Z,3.17
2022-07-26T08:58:43.555Z,6.27
2022-07-26T09:01:13.194Z,3.87
2022-07-26T09:03:40.942Z,3.67
2022-07-26T09:06:28.354Z,5.50
2022-07-26T09:09:11.485Z,6.00
2022-07-26T09:11:38.368Z,3.33
2022-07-26T09:14:06.590Z,4.57
2022-07-26T09:16:38.637Z,6.33
2022-07-26T09:19:16.077Z,6.50
2022-07-26T09:21:42.710Z,5.67
2022-07-26T09:24:10.163Z,3.63
2022-07-26T09:26:36.817Z,4.77
2022-07-26T09:29:12.857Z,4.47
2022-07-26T09:31:40.375Z,4.27
2022-07-26T09:34:08.162Z,3.47
2022-07-26T09:36:54.019Z,6.60
2022-07-26T09:39:27.765Z,3.07
2022-07-26T09:42:27.600Z,3.43
2022-07-26T09:44:56.578Z,4.73
2022-07-26T09:47:34.838Z,4.03
2022-07-26T09:50:18.824Z,3.27
2022-07-26T09:53:08.594Z,3.80
2022-07-26T09:55:45.167Z,3.53
2022-07-26T09:58:14.363Z,6.47
2022-07-26T10:00:41.433Z,4.27
2022-07-26T10:03:08.161Z,4.10
2022-07-26T10:05:35.181Z,4.13
2022-07-26T10:08:02.245Z,4.80
2022-07-26T10:10:32.250Z,5.17
2022-07-26T10:13:02.910Z,5.30
2022-07-26T10:15:40.511Z,4.30
2022-07-26T10:18:10.267Z,4.53
2022-07-26T10:20:55.445Z,4.53
2022-07-26T10:23:34.258Z,4.93
2022-07-26T10:26:01.959Z,5.40
2022-07-26T10:28:30.910Z,4.60
2022-07-26T10:31:32.182Z,3.38
2022-07-26T10:34:00.705Z,5.17
2022-07-26T10:36:33.739Z,6.70
2022-07-26T10:39:05.159Z,2.92
2022-07-26T10:42:17.905Z,4.50
2022-07-26T10:44:47.323Z,5.55
2022-07-26T10:47:16.569Z,3.65
2022-07-26T10:49:57.885Z,4.57
2022-07-26T10:52:29.900Z,13.95
2022-07-26T10:54:59.483Z,9.45
2022-07-26T10:57:39.899Z,9.05
2022-07-26T11:00:35.812Z,5.47
2022-07-26T11:03:02.503Z,5.03
2022-07-26T11:05:31.716Z,4.30
2022-07-26T11:08:10.840Z,4.97
2022-07-26T11:10:39.421Z,3.70
2022-07-26T11:13:13.441Z,4.63
2022-07-26T11:15:46.578Z,3.83
2022-07-26T11:18:25.219Z,7.03
2022-07-26T11:20:54.319Z,6.45
2022-07-26T11:23:26.572Z,4.65
2022-07-26T11:26:03.376Z,4.15
2022-07-26T11:28:30.628Z,3.22
2022-07-26T11:31:01.027Z,3.55
2022-07-26T11:33:37.873Z,4.25
2022-07-26T11:36:05.698Z,4.32
2022-07-26T11:38:51.880Z,5.43
2022-07-26T11:41:34.604Z,3.22
2022-07-26T11:44:02.948Z,3.47
2022-07-26T11:46:40.245Z,4.43
2022-07-26T11:49:18.421Z,4.97
2022-07-26T11:52:12.229Z,3.83
2022-07-26T11:54:44.683Z,2.58
2022-07-26T11:57:12.756Z,2.00
2022-07-26T11:59:40.172Z,6.22
2022-07-26T12:02:08.925Z,2.70
2022-07-26T12:04:39.503Z,4.10
2022-07-26T12:07:15.507Z,5.22
2022-07-26T12:09:47.765Z,6.72
2022-07-26T12:12:27.520Z,3.58
2022-07-26T12:15:00.243Z,3.08
2022-07-26T12:17:35.102Z,4.82
2022-07-26T12:20:17.777Z,2.78
2022-07-26T12:23:05.022Z,3.78
2022-07-26T12:25:32.515Z,4.82
2022-07-26T12:27:59.144Z,4.43
2022-07-26T12:30:25.895Z,5.00
2022-07-26T12:33:02.265Z,2.00
2022-07-26T12:35:35.795Z,2.53
2022-07-26T12:38:03.583Z,2.97
2022-07-26T12:40:39.630Z,3.08
2022-07-26T12:43:06.446Z,3.03
2022-07-26T12:45:34.897Z,2.35
2022-07-26T12:48:06.714Z,3.83
2022-07-26T12:50:33.421Z,1.25
2022-07-26T12:53:05.530Z,1.20
2022-07-26T12:55:32.602Z,1.80
2022-07-26T12:58:00.044Z,1.77
2022-07-26T13:00:29.655Z,1.80
2022-07-26T13:02:57.272Z,2.08
2022-07-26T13:05:24.170Z,1.73
2022-07-26T13:07:52.474Z,1.70
2022-07-26T13:10:35.855Z,2.65
2022-07-26T13:13:03.797Z,1.23
2022-07-26T13:15:35.246Z,2.03
2022-07-26T13:18:07.620Z,2.30
2022-07-26T13:20:36.724Z,1.95
2022-07-26T13:23:03.468Z,2.47
2022-07-26T13:25:39.719Z,2.35
2022-07-26T13:28:07.419Z,1.27
2022-07-26T13:30:35.973Z,2.70
2022-07-26T13:33:02.731Z,1.83
2022-07-26T13:35:29.445Z,2.28
2022-07-26T13:37:56.057Z,3.40
2022-07-26T13:40:25.339Z,3.70
2022-07-26T13:42:55.754Z,1.50
2022-07-26T13:45:23.071Z,3.10
2022-07-26T13:47:50.525Z,4.10
2022-07-26T13:50:17.239Z,1.52
2022-07-26T13:52:43.853Z,2.67
2022-07-26T13:55:10.496Z,2.78
2022-07-26T13:57:49.085Z,3.25
2022-07-26T14:00:23.719Z,1.55
2022-07-26T14:02:50.478Z,2.17
2022-07-26T14:05:17.393Z,3.35
2022-07-26T14:07:44.084Z,2.45
2022-07-26T14:10:10.897Z,2.70
2022-07-26T14:12:38.306Z,3.25
2022-07-26T14:15:11.993Z,3.95
2022-07-26T14:17:39.813Z,2.58
2022-07-26T14:20:07.116Z,1.73
2022-07-26T14:22:33.871Z,2.00
2022-07-26T14:25:00.590Z,2.47
2022-07-26T14:27:27.337Z,2.25
2022-07-26T14:29:54.005Z,1.77
2022-07-26T14:32:22.139Z,4.30
2022-07-26T14:34:49.552Z,1.23
2022-07-26T14:37:44.015Z,6.38
2022-07-26T14:40:05.596Z,2.60
2022-07-26T14:42:32.183Z,1.63
2022-07-26T14:44:58.990Z,1.73
2022-07-26T14:47:25.649Z,1.55
2022-07-26T14:49:52.434Z,3.08
2022-07-26T14:52:19.168Z,0.90
2022-07-26T14:54:45.859Z,2.45
2022-07-26T14:57:12.513Z,2.85
2022-07-26T14:59:39.118Z,6.03
2022-07-26T15:02:06.385Z,2.25
2022-07-26T15:04:33.132Z,1.90
2022-07-26T15:06:59.899Z,1.75
2022-07-26T15:09:26.679Z,1.65
2022-07-26T15:11:53.385Z,2.17
2022-07-26T15:14:20.017Z,1.08
2022-07-26T15:16:46.747Z,1.95
2022-07-26T15:19:13.538Z,0.70
2022-07-26T15:21:40.250Z,5.72
2022-07-26T15:24:07.764Z,1.25
2022-07-26T15:26:34.596Z,1.63
2022-07-26T15:29:01.265Z,0.17
2022-07-26T15:31:36.703Z,8.32
2022-07-26T15:34:04.528Z,2.70
2022-07-26T15:36:31.458Z,0.93
2022-07-26T15:39:05.262Z,9.23
2022-07-26T15:41:42.494Z,1.70
2022-07-26T15:44:10.704Z,3.25
2022-07-26T15:46:39.907Z,3.97
2022-07-26T15:49:07.691Z,0.90
2022-07-26T15:51:34.554Z,1.42
2022-07-26T15:54:03.029Z,2.55
2022-07-26T15:56:29.960Z,1.10
2022-07-26T15:58:56.604Z,2.65
2022-07-26T16:01:23.389Z,0.63
2022-07-26T16:03:50.578Z,4.78
2022-07-26T16:06:17.387Z,2.35
2022-07-26T16:09:05.946Z,2.03
2022-07-26T16:11:31.451Z,1.27
2022-07-26T16:14:01.277Z,2.00
2022-07-26T16:16:32.279Z,4.72
2022-07-26T16:18:59.630Z,1.63
2022-07-26T16:21:26.254Z,2.65
2022-07-26T16:24:06.665Z,3.17
2022-07-26T16:26:34.369Z,1.63
2022-07-26T16:29:01.179Z,2.70
2022-07-26T16:31:33.938Z,4.38
2022-07-26T16:34:00.741Z,2.47
2022-07-26T16:36:28.219Z,1.77
2022-07-26T16:38:54.867Z,3.95
2022-07-26T16:41:21.527Z,2.88
2022-07-26T16:43:48.213Z,1.52
2022-07-26T16:46:15.042Z,5.68
2022-07-26T16:48:41.793Z,3.35
2022-07-26T16:51:08.811Z,3.15
2022-07-26T16:53:35.603Z,2.45
2022-07-26T16:56:02.193Z,3.63
2022-07-26T16:58:28.891Z,2.38
2022-07-26T17:00:58.021Z,1.10
2022-07-26T17:03:24.831Z,0.80
2022-07-26T17:05:51.543Z,1.25
2022-07-26T17:08:19.688Z,4.30
2022-07-26T17:10:46.712Z,1.63
2022-07-26T17:13:13.361Z,2.13
2022-07-26T17:15:40.149Z,3.45
2022-07-26T17:18:06.814Z,1.75
2022-07-26T17:20:33.447Z,0.52
2022-07-26T17:23:02.417Z,3.42
2022-07-26T17:25:29.101Z,3.33
2022-07-26T17:27:55.724Z,3.67
2022-07-26T17:30:22.388Z,2.17
2022-07-26T17:32:49.120Z,3.00
2022-07-26T17:35:15.776Z,1.40
2022-07-26T17:37:46.123Z,2.28
2022-07-26T17:40:14.488Z,2.97
2022-07-26T17:42:43.051Z,2.75
2022-07-26T17:45:10.333Z,2.15
2022-07-26T17:47:36.975Z,5.07
2022-07-26T17:52:52.829Z,4.90
2022-07-26T17:55:20.407Z,2.67
2022-07-26T17:57:49.671Z,1.45
2022-07-26T18:00:21.834Z,6.15
2022-07-26T18:02:49.124Z,2.70
2022-07-26T18:05:16.747Z,2.08
2022-07-26T18:07:43.598Z,2.47
2022-07-26T18:10:11.636Z,2.35
2022-07-26T18:12:38.397Z,3.55
2022-07-26T18:15:06.865Z,0.98
2022-07-26T18:17:33.504Z,1.63
2022-07-26T18:20:00.318Z,2.30
2022-07-26T18:22:27.387Z,1.50
2022-07-26T18:24:54.084Z,4.57
2022-07-26T18:27:20.778Z,2.08
2022-07-26T18:29:47.509Z,2.30
2022-07-26T18:32:15.389Z,2.35
2022-07-26T18:34:42.007Z,1.48
2022-07-26T18:37:19.473Z,3.93
2022-07-26T18:39:46.211Z,3.00
2022-07-26T18:42:12.930Z,1.87
2022-07-26T18:44:39.585Z,1.03
2022-07-26T18:47:06.627Z,1.70
2022-07-26T18:49:35.013Z,6.00
2022-07-26T18:52:08.563Z,2.77
2022-07-26T18:54:36.211Z,3.37
2022-07-26T18:57:03.164Z,5.23
2022-07-26T18:59:31.108Z,1.80
2022-07-26T19:01:59.959Z,1.33
2022-07-26T19:04:27.657Z,6.03
2022-07-26T19:06:54.679Z,1.87
2022-07-26T19:09:21.594Z,2.83
2022-07-26T19:11:48.731Z,3.47
2022-07-26T19:14:15.520Z,4.67
2022-07-26T19:16:42.200Z,0.63
2022-07-26T19:19:08.964Z,0.70
2022-07-26T19:21:36.013Z,3.30
2022-07-26T19:24:02.798Z,1.70
2022-07-26T19:26:29.999Z,1.30
2022-07-26T19:28:56.664Z,1.53
2022-07-26T19:31:23.335Z,1.80
2022-07-26T19:33:50.655Z,0.97
2022-07-26T19:36:18.113Z,1.80
2022-07-26T19:38:57.125Z,2.93
2022-07-26T19:41:23.791Z,2.33
2022-07-26T19:43:50.498Z,1.97
2022-07-26T19:46:17.218Z,1.97
2022-07-26T19:48:44.201Z,2.07
2022-07-26T19:51:11.154Z,0.50
2022-07-26T19:53:37.836Z,1.13
2022-07-26T19:56:05.453Z,1.07
2022-07-26T19:58:32.244Z,1.37
2022-07-26T20:00:58.969Z,3.27
2022-07-26T20:03:25.788Z,2.30
2022-07-26T20:05:53.817Z,2.83
2022-07-26T20:08:20.648Z,1.40
2022-07-26T20:10:47.309Z,2.33
2022-07-26T20:13:14.004Z,2.00
2022-07-26T20:15:40.605Z,3.13
2022-07-26T20:18:07.555Z,3.60
2022-07-26T20:20:34.467Z,2.63
2022-07-26T20:23:02.401Z,2.00
2022-07-26T20:25:29.071Z,2.60
2022-07-26T20:27:55.682Z,1.90
2022-07-26T20:30:22.581Z,4.40
2022-07-26T20:32:49.258Z,3.87
2022-07-26T20:35:15.877Z,0.93
2022-07-26T20:37:43.653Z,3.70
2022-07-26T20:40:11.597Z,2.30
2022-07-26T20:42:41.953Z,2.40
2022-07-26T20:45:12.761Z,2.37
2022-07-26T20:47:43.125Z,3.23
2022-07-26T20:50:10.949Z,3.20
2022-07-26T20:52:37.681Z,4.77
2022-07-26T20:55:04.791Z,2.60
2022-07-26T20:57:31.468Z,2.03
2022-07-26T20:59:58.079Z,1.73
2022-07-26T21:02:24.971Z,1.40
2022-07-26T21:04:51.801Z,2.17
2022-07-26T21:07:18.957Z,3.57
2022-07-26T21:09:45.668Z,4.30
2022-07-26T21:12:12.310Z,4.87
2022-07-26T21:14:39.482Z,1.53
2022-07-26T21:17:11.295Z,1.97
2022-07-26T21:19:38.829Z,1.67
2022-07-26T21:22:05.507Z,3.47
2022-07-26T21:24:32.231Z,5.20
2022-07-26T21:26:58.851Z,2.20
2022-07-26T21:29:25.533Z,1.23
2022-07-26T21:31:52.128Z,3.40
2022-07-26T21:34:19.986Z,3.70
2022-07-26T21:36:46.668Z,1.80
2022-07-26T21:39:14.306Z,4.70
2022-07-26T21:41:41.176Z,3.93
2022-07-26T21:44:07.841Z,2.93
2022-07-26T21:46:34.549Z,3.60
2022-07-26T21:49:01.470Z,1.80
2022-07-26T21:51:28.149Z,1.53
2022-07-26T21:53:55.059Z,5.40
2022-07-26T21:56:21.831Z,1.27
2022-07-26T21:58:48.520Z,2.37
2022-07-26T22:01:16.155Z,2.23
2022-07-26T22:03:43.087Z,2.23
2022-07-26T22:06:10.512Z,2.50
2022-07-26T22:08:37.462Z,1.83
2022-07-26T22:11:04.856Z,2.63
2022-07-26T22:13:31.580Z,3.00
2022-07-26T22:15:58.643Z,2.90
2022-07-26T22:18:25.486Z,4.63
2022-07-26T22:20:52.144Z,2.77
2022-07-26T22:23:18.960Z,4.77
2022-07-26T22:25:46.036Z,1.53
2022-07-26T22:28:18.234Z,2.20
2022-07-26T22:30:45.540Z,3.83
2022-07-26T22:33:12.177Z,4.33
2022-07-26T22:35:38.931Z,3.03
2022-07-26T22:38:09.498Z,5.53
2022-07-26T22:40:37.091Z,1.93
2022-07-26T22:43:04.054Z,5.87
2022-07-26T22:45:31.583Z,2.87
2022-07-26T22:47:58.623Z,4.80
2022-07-26T22:50:25.663Z,3.20
2022-07-26T22:52:52.643Z,3.87
2022-07-26T22:55:19.811Z,2.53
2022-07-26T22:57:46.920Z,4.57
2022-07-26T23:00:17.857Z,5.63
2022-07-26T23:02:45.564Z,5.73
2022-07-26T23:05:14.528Z,1.87
2022-07-26T23:07:41.771Z,5.87
2022-07-26T23:10:12.607Z,3.50
2022-07-26T23:12:39.397Z,3.53
2022-07-26T23:15:06.881Z,5.17
2022-07-26T23:17:36.506Z,2.30
2022-07-26T23:20:06.330Z,3.27
2022-07-26T23:22:33.344Z,7.50
2022-07-26T23:24:59.984Z,5.27
2022-07-26T23:27:26.721Z,3.50
2022-07-26T23:29:53.566Z,2.27
2022-07-26T23:32:20.422Z,6.30
2022-07-26T23:34:47.064Z,5.17
2022-07-26T23:37:13.711Z,6.00
2022-07-26T23:39:40.425Z,4.07
2022-07-26T23:42:07.385Z,6.23
2022-07-26T23:44:34.180Z,3.13
2022-07-26T23:47:01.513Z,2.77
2022-07-26T23:49:28.367Z,2.03
2022-07-26T23:51:55.221Z,4.40
2022-07-26T23:54:21.900Z,3.67
2022-07-26T23:56:48.517Z,5.33
2022-07-26T23:59:15.490Z,4.43
